Time;durP1;ratioP1;P1;durP2;ratioP2;P2;SDS_P1;SDS_P2;PMS_P1;PMS_P2;Temp;Humidity;BMP_temperature;BMP_pressure;BME280_temperature;BME280_humidity;BME280_pressure;Samples;Min_cycle;Max_cycle;Signal;HPM_P1;HPM_P2
2023/06/04 00:02:15;;;;;;;4.85;1.85;;;20.30;41.60;;;;;;2209767;56;21070;-71
2023/06/04 00:04:42;;;;;;;4.18;2.20;;;20.30;41.70;;;;;;2427276;56;21002;-70
2023/06/04 00:07:08;;;;;;;5.60;1.98;;;20.30;41.80;;;;;;2210069;56;21499;-71
2023/06/04 00:09:37;;;;;;;3.40;1.92;;;20.20;41.80;;;;;;2209212;56;20982;-70
2023/06/04 00:12:03;;;;;;;3.50;1.95;;;20.20;42.50;;;;;;2427626;56;21452;-73
2023/06/04 00:14:33;;;;;;;3.95;2.20;;;20.10;41.90;;;;;;2427405;56;20954;-74
2023/06/04 00:16:59;;;;;;;5.25;1.87;;;20.10;41.90;;;;;;2210234;56;21010;-72
2023/06/04 00:19:25;;;;;;;2.80;1.58;;;20.00;41.90;;;;;;2209387;56;20971;-72
2023/06/04 00:21:52;;;;;;;3.12;1.80;;;20.00;42.00;;;;;;2426775;56;20950;-72
2023/06/04 00:24:18;;;;;;;3.22;1.83;;;20.00;42.10;;;;;;2208684;56;20942;-74
2023/06/04 00:26:45;;;;;;;3.12;1.80;;;19.90;42.10;;;;;;2209174;56;20990;-72
2023/06/04 00:29:11;;;;;;;4.55;1.90;;;19.90;42.10;;;;;;2210882;56;21018;-71
2023/06/04 00:31:40;;;;;;;4.07;1.90;;;19.90;42.20;;;;;;2426334;56;21727;-73
2023/06/04 00:34:10;;;;;;;3.20;1.48;;;19.90;42.20;;;;;;2427610;56;20963;-71
2023/06/04 00:36:36;;;;;;;3.70;2.00;;;19.80;42.40;;;;;;2209076;56;20966;-71
2023/06/04 00:39:03;;;;;;;3.40;1.80;;;19.80;42.40;;;;;;2210680;56;21536;-71
2023/06/04 00:41:29;;;;;;;3.47;1.70;;;19.70;42.40;;;;;;2426659;56;20946;-72
2023/06/04 00:43:56;;;;;;;3.65;2.03;;;19.60;42.40;;;;;;2206829;56;21071;-72
2023/06/04 00:46:26;;;;;;;4.37;2.12;;;19.60;42.50;;;;;;2426552;56;21431;-71
2023/06/04 00:48:53;;;;;;;3.78;1.92;;;19.60;42.70;;;;;;2209328;56;21015;-71
2023/06/04 00:51:23;;;;;;;3.05;1.70;;;19.60;42.60;;;;;;2427096;56;20994;-72
2023/06/04 00:53:49;;;;;;;3.30;1.95;;;19.50;42.70;;;;;;2427425;56;21067;-70
2023/06/04 00:56:16;;;;;;;3.05;1.65;;;19.50;42.80;;;;;;2427622;56;20947;-72
2023/06/04 00:58:45;;;;;;;3.37;1.60;;;19.50;43.00;;;;;;2426772;56;21010;-71
2023/06/04 01:02:33;;;;;;;5.85;1.98;;;19.50;43.00;;;;;;2221335;56;20939;-72
2023/06/04 01:05:48;;;;;;;2.60;1.40;;;19.40;43.30;;;;;;2427026;56;20998;-73
2023/06/04 01:08:15;;;;;;;3.55;1.90;;;19.40;43.40;;;;;;2427752;56;20981;-72
2023/06/04 01:10:54;;;;;;;4.18;1.70;;;19.30;42.90;;;;;;2223538;57;20999;-73
2023/06/04 01:13:20;;;;;;;3.92;1.87;;;19.30;43.50;;;;;;2427839;56;20939;-73
2023/06/04 01:15:47;;;;;;;3.00;1.70;;;19.30;43.20;;;;;;2209440;56;20938;-73
2023/06/04 01:18:24;;;;;;;2.90;1.55;;;19.30;43.30;;;;;;2427490;56;20994;-71
2023/06/04 01:20:52;;;;;;;3.03;1.65;;;19.20;43.30;;;;;;2209539;56;20978;-72
2023/06/04 01:23:42;;;;;;;3.37;1.98;;;19.20;43.30;;;;;;2219138;56;20998;-70
2023/06/04 01:26:10;;;;;;;3.80;2.10;;;19.20;43.80;;;;;;2214441;56;20955;-70
2023/06/04 01:28:36;;;;;;;4.72;2.40;;;19.10;43.70;;;;;;2426389;56;21883;-71
2023/06/04 01:31:04;;;;;;;3.47;1.73;;;19.10;43.80;;;;;;2210102;56;20994;-72
2023/06/04 01:33:30;;;;;;;4.32;2.05;;;19.00;43.60;;;;;;2418269;57;20954;-71
2023/06/04 01:35:57;;;;;;;4.22;2.30;;;19.00;43.60;;;;;;2209717;56;21073;-72
2023/06/04 01:38:23;;;;;;;4.93;2.25;;;19.00;43.80;;;;;;2210565;56;20986;-73
2023/06/04 01:40:50;;;;;;;3.30;1.83;;;18.90;43.70;;;;;;2208972;56;21006;-70
2023/06/04 01:43:17;;;;;;;4.60;2.10;;;18.90;43.80;;;;;;2427262;56;20946;-71
2023/06/04 01:45:46;;;;;;;4.78;2.17;;;18.90;43.80;;;;;;2209704;56;20991;-71
2023/06/04 01:48:12;;;;;;;9.93;2.95;;;18.90;43.90;;;;;;2427841;56;21022;-71
2023/06/04 01:50:39;;;;;;;3.50;2.00;;;18.80;43.90;;;;;;2209098;56;21031;-71
2023/06/04 01:53:06;;;;;;;3.50;1.62;;;18.80;44.00;;;;;;2427611;56;21823;-71
2023/06/04 01:55:33;;;;;;;4.25;2.40;;;18.80;44.00;;;;;;2431127;56;21925;-70
2023/06/04 01:57:59;;;;;;;3.37;1.70;;;18.80;44.00;;;;;;2218742;56;21007;-73
2023/06/04 02:00:25;;;;;;;4.20;2.10;;;18.70;44.00;;;;;;2218585;56;21036;-73
2023/06/04 02:02:52;;;;;;;4.05;2.00;;;18.70;44.10;;;;;;2216274;57;21347;-69
2023/06/04 02:05:19;;;;;;;4.60;2.33;;;18.70;44.20;;;;;;2208912;56;20943;-70
2023/06/04 02:07:47;;;;;;;4.93;2.12;;;18.60;44.20;;;;;;2427293;56;20978;-70
2023/06/04 02:10:18;;;;;;;3.85;1.90;;;18.60;44.30;;;;;;2428103;56;21046;-71
2023/06/04 02:12:58;;;;;;;3.28;1.75;;;18.60;44.40;;;;;;2426740;56;20938;-71
2023/06/04 02:15:26;;;;;;;3.80;1.90;;;18.50;44.50;;;;;;2210089;56;21867;-72
2023/06/04 02:18:12;;;;;;;3.67;1.95;;;18.50;44.20;;;;;;2209226;56;20990;-71
2023/06/04 02:20:39;;;;;;;4.75;2.40;;;18.50;44.60;;;;;;2426691;56;21073;-70
2023/06/04 02:23:05;;;;;;;3.37;1.87;;;18.50;44.50;;;;;;2209632;56;21026;-72
2023/06/04 02:25:31;;;;;;;3.75;1.90;;;18.40;44.50;;;;;;2209478;56;21023;-70
2023/06/04 02:27:58;;;;;;;3.17;1.85;;;18.40;44.50;;;;;;2427304;56;20987;-70
2023/06/04 02:30:24;;;;;;;3.65;1.98;;;18.30;44.50;;;;;;2210324;56;21532;-71
2023/06/04 02:32:51;;;;;;;3.70;2.10;;;18.30;44.50;;;;;;2210216;56;21321;-70
2023/06/04 02:35:18;;;;;;;3.45;1.75;;;18.30;44.80;;;;;;2210487;56;20979;-72
2023/06/04 02:37:46;;;;;;;4.05;2.17;;;18.20;44.70;;;;;;2209590;56;20946;-71
2023/06/04 02:40:12;;;;;;;3.83;2.00;;;18.20;44.80;;;;;;2427741;56;20998;-70
2023/06/04 02:42:38;;;;;;;3.53;2.20;;;18.20;44.80;;;;;;2221662;57;20935;-70
2023/06/04 02:45:06;;;;;;;3.30;1.92;;;18.10;44.80;;;;;;2212932;56;20999;-72
2023/06/04 02:47:33;;;;;;;3.85;2.17;;;18.10;44.90;;;;;;2209353;56;20959;-71
2023/06/04 02:50:03;;;;;;;3.80;2.10;;;18.10;45.00;;;;;;2209019;56;20966;-70
2023/06/04 02:52:30;;;;;;;3.70;1.90;;;18.10;45.20;;;;;;2210086;56;21456;-72
2023/06/04 02:54:58;;;;;;;4.28;1.90;;;18.00;45.10;;;;;;2209676;56;20950;-72
2023/06/04 02:57:26;;;;;;;3.60;1.92;;;18.00;45.10;;;;;;2209637;56;20942;-70
2023/06/04 02:59:52;;;;;;;4.05;1.98;;;18.00;45.20;;;;;;2208752;56;21762;-70
2023/06/04 03:02:19;;;;;;;3.60;2.10;;;17.90;45.10;;;;;;2427587;56;20942;-71
2023/06/04 03:04:50;;;;;;;4.25;2.20;;;17.90;45.20;;;;;;2427841;56;21251;-70
2023/06/04 03:07:20;;;;;;;4.28;2.37;;;17.90;45.30;;;;;;2427599;56;20946;-70
2023/06/04 03:09:47;;;;;;;4.22;2.45;;;17.90;45.30;;;;;;2209256;56;20986;-72
2023/06/04 03:12:22;;;;;;;4.35;2.25;;;17.90;45.40;;;;;;2210262;56;20989;-70
2023/06/04 03:14:57;;;;;;;4.15;2.28;;;17.80;45.60;;;;;;2427057;56;21014;-70
2023/06/04 03:17:36;;;;;;;4.53;2.20;;;17.80;45.70;;;;;;2444710;56;21608;-71
2023/06/04 03:20:19;;;;;;;3.58;1.98;;;17.80;45.70;;;;;;2418246;57;20938;-70
2023/06/04 03:22:45;;;;;;;3.72;2.00;;;17.80;45.60;;;;;;2213031;56;20947;-71
2023/06/04 03:25:28;;;;;;;3.75;1.87;;;17.80;45.60;;;;;;2441026;56;21873;-71
2023/06/04 03:28:11;;;;;;;3.97;2.30;;;17.80;46.00;;;;;;2209927;56;21069;-72
2023/06/04 03:30:51;;;;;;;3.55;1.92;;;17.70;45.70;;;;;;2427442;56;20974;-70
2023/06/04 03:33:21;;;;;;;3.20;1.70;;;17.70;45.80;;;;;;2210054;56;21043;-70
2023/06/04 03:36:21;;;;;;;3.70;2.15;;;17.70;45.90;;;;;;2228195;57;20912;-71
2023/06/04 03:38:58;;;;;;;4.10;2.05;;;17.70;45.90;;;;;;2425698;56;21309;-72
2023/06/04 03:41:31;;;;;;;;;;;17.70;45.90;;;;;;2227937;56;20919;-70
2023/06/04 03:44:23;;;;;;;3.78;1.48;;;17.70;46.10;;;;;;2428677;56;20058;-72
2023/06/04 03:47:12;;;;;;;4.05;1.98;;;17.70;45.90;;;;;;2216991;56;21039;-72
2023/06/04 03:49:42;;;;;;;3.17;1.92;;;17.60;45.80;;;;;;2400575;56;21057;-70
2023/06/04 03:52:36;;;;;;;;;;;;;;;;;;;;;
2023/06/04 03:55:22;;;;;;;3.55;1.62;;;17.60;45.90;;;;;;2424501;56;21050;-71
2023/06/04 04:03:52;;;;;;;3.50;1.77;;;17.60;46.40;;;;;;2403779;57;20968;-69
2023/06/04 04:07:37;;;;;;;3.45;1.60;;;17.60;46.30;;;;;;2416061;56;21017;-70
2023/06/04 04:10:18;;;;;;;4.82;2.03;;;17.60;46.60;;;;;;2206192;57;21034;-72
2023/06/04 04:13:11;;;;;;;3.25;1.67;;;17.60;46.20;;;;;;2421873;55;21034;-73
2023/06/04 04:15:46;;;;;;;3.53;2.05;;;17.60;46.40;;;;;;2212705;57;21451;-69
2023/06/04 04:18:35;;;;;;;3.40;1.90;;;17.60;46.60;;;;;;2209801;56;21015;-71
2023/06/04 04:21:23;;;;;;;3.65;1.98;;;17.60;46.90;;;;;;2425297;55;21026;-70
2023/06/04 04:24:01;;;;;;;4.37;2.15;;;17.60;46.60;;;;;;2427366;55;20991;-72
2023/06/04 04:27:05;;;;;;;3.15;1.83;;;17.60;46.90;;;;;;2216359;56;21096;-71
2023/06/04 04:29:59;;;;;;;3.37;1.85;;;17.60;47.00;;;;;;2217989;56;20959;-73
2023/06/04 04:32:54;;;;;;;5.30;1.75;;;17.60;46.70;;;;;;2444263;55;21029;-71
2023/06/04 04:35:23;;;;;;;3.12;1.58;;;17.60;47.10;;;;;;2209921;56;20995;-71
2023/06/04 04:37:58;;;;;;;3.40;1.50;;;17.60;46.80;;;;;;2210963;56;20966;-72
2023/06/04 04:40:43;;;;;;;3.00;1.60;;;17.60;46.70;;;;;;2413465;55;21865;-73
2023/06/04 04:43:32;;;;;;;2.87;1.48;;;17.70;46.90;;;;;;2426947;55;21054;-70
2023/06/04 04:46:08;;;;;;;3.17;1.47;;;17.70;47.10;;;;;;2425214;55;20983;-70
2023/06/04 04:48:42;;;;;;;2.80;1.40;;;17.70;46.80;;;;;;2215775;56;20990;-71
2023/06/04 04:51:12;;;;;;;3.28;1.40;;;17.70;46.80;;;;;;2219716;56;20998;-70
2023/06/04 04:53:54;;;;;;;3.90;2.00;;;17.70;46.70;;;;;;2426971;55;20922;-69
2023/06/04 04:56:26;;;;;;;4.00;1.60;;;17.70;46.90;;;;;;2427894;55;20958;-70
2023/06/04 04:58:53;;;;;;;3.50;1.70;;;17.80;46.90;;;;;;2425745;55;21022;-72
2023/06/04 05:01:20;;;;;;;3.58;1.90;;;17.80;46.90;;;;;;2433996;55;21042;-71
2023/06/04 05:03:48;;;;;;;4.28;1.85;;;17.80;46.90;;;;;;2434790;55;21078;-70
2023/06/04 05:06:14;;;;;;;3.62;1.87;;;17.80;47.00;;;;;;2428185;55;20955;-71
2023/06/04 05:08:42;;;;;;;3.22;1.70;;;17.80;47.10;;;;;;2427244;55;21820;-71
2023/06/04 05:11:08;;;;;;;4.55;2.08;;;17.90;47.20;;;;;;2210303;56;21067;-71
2023/06/04 05:13:35;;;;;;;3.65;1.95;;;17.90;47.20;;;;;;2209722;56;21006;-73
2023/06/04 05:16:06;;;;;;;3.70;1.50;;;17.90;47.20;;;;;;2427459;55;20954;-71
2023/06/04 05:18:44;;;;;;;3.67;1.95;;;18.00;47.30;;;;;;2427982;55;21023;-72
2023/06/04 05:21:12;;;;;;;3.75;1.58;;;18.00;47.30;;;;;;2206265;57;20915;-71
2023/06/04 05:23:42;;;;;;;3.15;1.58;;;18.00;47.30;;;;;;2209416;56;20927;-70
2023/06/04 05:26:09;;;;;;;3.90;1.98;;;18.10;47.30;;;;;;2210148;56;20998;-71
2023/06/04 05:28:35;;;;;;;3.12;1.58;;;18.10;47.30;;;;;;2209428;56;20991;-70
2023/06/04 05:31:02;;;;;;;3.40;1.67;;;18.10;47.30;;;;;;2209222;56;20971;-71
2023/06/04 05:33:30;;;;;;;5.45;1.80;;;18.20;47.40;;;;;;2209541;56;20970;-70
2023/06/04 05:35:57;;;;;;;3.00;1.50;;;18.20;47.40;;;;;;2209350;56;20942;-71
2023/06/04 05:38:26;;;;;;;3.25;1.52;;;18.20;47.40;;;;;;2426316;55;20986;-70
2023/06/04 05:40:56;;;;;;;3.22;1.48;;;18.30;47.30;;;;;;2426688;55;21852;-71
2023/06/04 05:43:22;;;;;;;3.53;1.35;;;18.30;47.20;;;;;;2213683;56;21322;-71
2023/06/04 05:45:49;;;;;;;2.85;1.50;;;18.30;47.10;;;;;;2221072;56;21508;-69
2023/06/04 05:48:15;;;;;;;4.55;1.70;;;18.40;47.10;;;;;;2426908;55;20946;-71
2023/06/04 05:50:41;;;;;;;3.47;1.30;;;18.40;47.00;;;;;;2208914;56;21010;-71
2023/06/04 05:53:08;;;;;;;2.03;1.05;;;18.40;46.90;;;;;;2427358;55;20939;-72
2023/06/04 05:55:34;;;;;;;3.40;1.70;;;18.40;46.90;;;;;;2208829;56;20942;-70
2023/06/04 05:58:00;;;;;;;3.40;1.55;;;18.50;46.90;;;;;;2426700;55;21539;-72
2023/06/04 06:00:27;;;;;;;2.78;1.50;;;18.50;47.00;;;;;;2209297;56;20986;-70
2023/06/04 06:02:55;;;;;;;3.15;1.80;;;18.50;47.00;;;;;;2208878;56;20927;-71
2023/06/04 06:05:21;;;;;;;4.28;2.10;;;18.60;47.00;;;;;;2208606;56;21463;-70
2023/06/04 06:07:48;;;;;;;3.53;1.58;;;18.60;46.90;;;;;;2426585;55;20935;-72
2023/06/04 06:10:15;;;;;;;4.78;1.77;;;18.60;47.10;;;;;;2209811;56;20935;-72
2023/06/04 06:12:42;;;;;;;4.25;1.50;;;18.70;47.20;;;;;;2209005;56;21922;-70
2023/06/04 06:15:09;;;;;;;5.03;1.65;;;18.70;47.20;;;;;;2437019;55;21093;-70
2023/06/04 06:17:39;;;;;;;4.57;1.50;;;18.80;47.20;;;;;;2431034;55;21014;-70
2023/06/04 06:20:07;;;;;;;4.10;1.80;;;18.80;47.10;;;;;;2427566;55;21031;-71
2023/06/04 06:22:34;;;;;;;3.00;1.20;;;18.90;47.20;;;;;;2208785;56;20986;-71
2023/06/04 06:25:11;;;;;;;3.80;1.62;;;18.90;47.10;;;;;;2427411;55;20963;-72
2023/06/04 06:27:41;;;;;;;3.65;1.62;;;18.90;47.10;;;;;;2426824;55;21018;-73
2023/06/04 06:30:08;;;;;;;4.05;1.98;;;19.00;47.20;;;;;;2210157;56;21799;-70
2023/06/04 06:32:38;;;;;;;5.40;1.90;;;19.10;47.40;;;;;;2427569;55;20966;-71
2023/06/04 06:35:05;;;;;;;3.70;1.77;;;19.10;47.40;;;;;;2209853;56;20927;-73
2023/06/04 06:37:33;;;;;;;4.12;2.10;;;19.10;47.40;;;;;;2209746;56;21966;-72
2023/06/04 06:40:00;;;;;;;3.10;1.52;;;19.20;47.60;;;;;;2426950;55;20942;-71
2023/06/04 06:42:32;;;;;;;3.40;1.70;;;19.20;47.40;;;;;;2209131;56;21743;-71
2023/06/04 06:44:59;;;;;;;3.33;1.60;;;19.30;47.50;;;;;;2209563;56;21002;-71
2023/06/04 06:47:26;;;;;;;3.95;2.10;;;19.30;47.30;;;;;;2209590;56;20982;-71
2023/06/04 06:49:52;;;;;;;2.70;1.48;;;19.40;47.40;;;;;;2209110;56;21026;-70
2023/06/04 06:52:19;;;;;;;3.50;1.48;;;19.50;47.50;;;;;;2209433;56;20946;-71
2023/06/04 06:54:46;;;;;;;3.28;1.35;;;19.50;47.30;;;;;;2426768;55;21051;-72
2023/06/04 06:57:12;;;;;;;2.60;1.17;;;19.60;47.20;;;;;;2427185;55;20923;-71
2023/06/04 06:59:48;;;;;;;2.60;1.23;;;19.60;47.10;;;;;;2209271;56;21058;-72
2023/06/04 07:02:15;;;;;;;3.30;1.37;;;19.70;47.00;;;;;;2209826;56;21416;-72
2023/06/04 07:04:41;;;;;;;3.78;1.55;;;19.70;47.10;;;;;;2209148;56;20979;-72
2023/06/04 07:07:08;;;;;;;4.00;1.60;;;19.80;47.20;;;;;;2427501;55;20988;-72
2023/06/04 07:09:34;;;;;;;3.50;1.70;;;19.90;47.20;;;;;;2427460;55;21014;-72
2023/06/04 07:12:01;;;;;;;3.35;1.67;;;20.00;47.30;;;;;;2209350;56;20995;-74
2023/06/04 07:14:28;;;;;;;3.35;1.50;;;20.00;47.20;;;;;;2427912;55;20938;-75
2023/06/04 07:16:55;;;;;;;3.90;1.52;;;20.00;47.10;;;;;;2209102;56;20942;-71
2023/06/04 07:19:22;;;;;;;3.58;1.60;;;20.10;47.10;;;;;;2432033;55;20970;-72
2023/06/04 07:21:50;;;;;;;4.25;1.60;;;20.20;47.20;;;;;;2438682;55;21468;-72
2023/06/04 07:24:18;;;;;;;3.65;1.62;;;20.30;47.30;;;;;;2209865;56;21035;-73
2023/06/04 07:26:44;;;;;;;3.05;1.40;;;20.30;47.10;;;;;;2427274;55;21025;-70
2023/06/04 07:29:15;;;;;;;3.85;1.40;;;20.40;47.10;;;;;;2443659;55;21021;-70
2023/06/04 07:31:42;;;;;;;3.78;1.30;;;20.50;47.10;;;;;;2430388;55;21865;-69
2023/06/04 07:34:08;;;;;;;3.78;1.40;;;20.60;47.00;;;;;;2439720;55;21086;-72
2023/06/04 07:36:35;;;;;;;4.60;1.65;;;20.70;47.00;;;;;;2209150;56;20958;-73
2023/06/04 07:39:01;;;;;;;3.78;1.55;;;20.80;47.10;;;;;;2209382;56;21435;-72
2023/06/04 07:41:27;;;;;;;2.90;1.40;;;20.80;47.00;;;;;;2214197;56;20946;-69
2023/06/04 07:43:53;;;;;;;5.15;1.75;;;20.90;46.90;;;;;;2221312;56;21322;-71
2023/06/04 07:46:20;;;;;;;3.33;1.33;;;21.00;46.80;;;;;;2209205;56;20966;-71
2023/06/04 07:48:46;;;;;;;2.70;1.30;;;21.10;46.70;;;;;;2427365;55;20951;-73
2023/06/04 07:51:13;;;;;;;3.70;1.42;;;21.10;46.50;;;;;;2427226;55;20970;-73
2023/06/04 07:53:44;;;;;;;2.95;1.20;;;21.20;46.30;;;;;;2427065;55;20962;-70
2023/06/04 07:56:11;;;;;;;2.60;1.10;;;21.30;46.30;;;;;;2427426;55;21014;-73
2023/06/04 07:58:37;;;;;;;2.55;1.12;;;21.30;46.10;;;;;;2209674;56;21007;-74
2023/06/04 08:01:05;;;;;;;3.47;1.50;;;21.40;46.20;;;;;;2209373;56;21027;-71
2023/06/04 08:03:35;;;;;;;4.43;1.62;;;21.40;46.10;;;;;;2427241;55;21282;-71
2023/06/04 08:06:02;;;;;;;4.15;1.37;;;21.30;45.90;;;;;;2210091;56;20931;-73
2023/06/04 08:08:30;;;;;;;2.92;1.23;;;21.50;45.90;;;;;;2440469;55;21030;-74
2023/06/04 08:10:57;;;;;;;3.25;1.12;;;21.60;45.90;;;;;;2429338;55;20942;-72
2023/06/04 08:13:24;;;;;;;2.87;1.23;;;21.60;45.70;;;;;;2427140;55;21408;-73
2023/06/04 08:15:53;;;;;;;4.32;1.37;;;21.60;45.60;;;;;;2427278;55;20999;-72
2023/06/04 08:18:20;;;;;;;3.15;1.33;;;21.70;45.40;;;;;;2438353;55;21857;-73
2023/06/04 08:20:49;;;;;;;3.72;1.35;;;21.70;45.40;;;;;;2222318;56;21021;-72
2023/06/04 08:23:19;;;;;;;3.05;1.08;;;21.70;45.30;;;;;;2438135;55;21098;-74
2023/06/04 08:25:46;;;;;;;4.07;1.60;;;21.80;45.30;;;;;;2221711;56;21011;-72
2023/06/04 08:28:19;;;;;;;2.62;1.25;;;21.80;45.20;;;;;;2427268;55;22112;-73
2023/06/04 08:30:54;;;;;;;2.45;1.10;;;21.80;45.10;;;;;;2439643;55;20942;-71
2023/06/04 08:33:24;;;;;;;2.85;1.17;;;21.90;45.10;;;;;;2431077;55;20990;-72
2023/06/04 08:35:52;;;;;;;3.53;1.30;;;21.90;45.00;;;;;;2438506;55;20956;-70
2023/06/04 08:38:27;;;;;;;1.95;1.00;;;21.90;44.90;;;;;;2436709;55;21593;-70
2023/06/04 08:41:16;;;;;;;2.55;1.08;;;21.90;45.00;;;;;;2421839;55;21902;-69
2023/06/04 08:44:39;;;;;;;3.05;1.00;;;22.00;45.20;;;;;;2426712;55;21001;-71
2023/06/04 08:49:38;;;;;;;4.57;1.20;;;22.00;45.30;;;;;;2225508;57;21043;-73
2023/06/04 08:52:39;;;;;;;2.00;0.90;;;22.10;45.10;;;;;;2215077;56;21050;-70
2023/06/04 08:55:48;;;;;;;2.58;1.08;;;22.20;45.00;;;;;;2209253;57;21776;-70
2023/06/04 08:59:50;;;;;;;5.05;1.60;;;22.20;45.00;;;;;;2418880;56;20967;-72
2023/06/04 09:03:21;;;;;;;;;;;;;;;;;;;;;
2023/06/04 09:06:53;;;;;;;;;;;;;;;;;;;;;
2023/06/04 09:10:17;;;;;;;3.33;1.48;;;22.40;45.10;;;;;;2342349;56;21030;-70
2023/06/04 09:19:35;;;;;;;2.62;1.15;;;22.40;45.20;;;;;;2211974;56;21021;-72
2023/06/04 09:23:30;;;;;;;2.17;0.95;;;22.50;45.10;;;;;;2441562;55;21077;-75
2023/06/04 09:31:20;;;;;;;3.37;1.00;;;22.60;44.80;;;;;;2427007;55;21845;-71
2023/06/04 09:52:52;;;;;;;;;;;;;;;;;;;;;
2023/06/04 09:57:35;;;;;;;1.85;0.90;;;23.10;44.80;;;;;;2349439;57;21621;-71
2023/06/04 10:39:13;;;;;;;;;;;;;;;;;;;;;
2023/06/04 11:04:07;;;;;;;;;;;;;;;;;;;;;
2023/06/04 12:42:08;;;;;;;3.15;1.30;;;26.00;45.20;;;;;;2441079;55;21304;-72
2023/06/04 12:51:24;;;;;;;2.67;1.20;;;28.10;42.60;;;;;;2431980;55;20972;-72
2023/06/04 12:55:19;;;;;;;2.58;1.40;;;28.20;41.90;;;;;;2462627;54;21059;-75
2023/06/04 12:58:12;;;;;;;;;;;28.40;41.70;;;;;;2445812;55;21342;-71
2023/06/04 13:02:37;;;;;;;2.75;1.25;;;28.50;42.10;;;;;;2439150;56;20699;-72
2023/06/04 13:05:39;;;;;;;2.78;1.23;;;28.60;41.10;;;;;;2461723;54;20964;-74
2023/06/04 13:08:30;;;;;;;3.33;1.48;;;28.80;41.10;;;;;;2465913;55;20981;-74
2023/06/04 13:12:09;;;;;;;;;;;;;;;;;;;;;
2023/06/04 13:15:37;;;;;;;3.37;1.20;;;28.90;40.40;;;;;;2414971;55;20935;-72
2023/06/04 13:56:04;;;;;;;3.03;1.30;;;29.50;39.60;;;;;;2418927;55;21028;-72
2023/06/04 14:01:59;;;;;;;2.20;0.98;;;29.60;39.30;;;;;;2444290;54;21976;-72
2023/06/04 14:05:24;;;;;;;2.62;1.23;;;29.70;37.90;;;;;;2211351;56;21002;-72
2023/06/04 14:09:09;;;;;;;3.58;2.00;;;29.80;37.70;;;;;;2403722;56;20969;-73
2023/06/04 15:29:12;;;;;;;;;;;;;;;;;;;;;
2023/06/04 15:33:10;;;;;;;;;;;;;;;;;;;;;
2023/06/04 18:21:11;;;;;;;2.72;0.88;;;29.80;35.20;;;;;;2477031;54;21599;-73
2023/06/04 18:24:36;;;;;;;3.22;0.77;;;31.30;32.80;;;;;;2438577;54;21871;-73
2023/06/04 18:28:09;;;;;;;;;;;;;;;;;;;;;
2023/06/04 18:49:25;;;;;;;;;;;;;;;;;;;;;
2023/06/04 18:52:21;;;;;;;2.55;0.55;;;30.50;31.90;;;;;;2357177;57;21034;-72
2023/06/04 18:55:54;;;;;;;2.37;0.93;;;30.30;31.90;;;;;;2158136;58;21063;-72
2023/06/04 19:16:19;;;;;;;;;;;;;;;;;;;;;
2023/06/04 19:19:38;;;;;;;4.30;1.55;;;29.10;31.50;;;;;;2485165;54;21016;-72
2023/06/04 19:30:11;;;;;;;;;;;;;;;;;;;;;
2023/06/04 21:04:43;;;;;;;1.42;0.75;;;27.60;32.00;;;;;;2477498;55;21903;-73
2023/06/04 21:08:02;;;;;;;1.62;0.62;;;23.40;34.80;;;;;;2477268;55;21054;-71
2023/06/04 21:10:34;;;;;;;2.35;1.10;;;23.20;35.10;;;;;;2278643;55;21158;-71
2023/06/04 21:13:04;;;;;;;2.28;1.05;;;23.10;35.20;;;;;;2281496;54;21011;-72
2023/06/04 21:15:39;;;;;;;2.83;1.17;;;22.90;35.30;;;;;;2291701;54;20926;-71
2023/06/04 21:18:06;;;;;;;2.40;1.02;;;22.80;35.50;;;;;;2266065;55;20995;-71
2023/06/04 21:20:38;;;;;;;2.17;1.27;;;22.70;35.60;;;;;;2542935;53;21121;-71
2023/06/04 21:23:06;;;;;;;2.97;1.40;;;22.60;35.80;;;;;;2288088;54;20966;-73
2023/06/04 21:25:35;;;;;;;3.08;1.50;;;22.50;36.00;;;;;;2522151;54;21847;-71
2023/06/04 21:28:02;;;;;;;2.58;1.30;;;22.40;36.10;;;;;;2288028;54;20958;-72
2023/06/04 21:30:28;;;;;;;2.55;1.30;;;22.40;36.20;;;;;;2281617;54;20954;-72
2023/06/04 21:32:55;;;;;;;2.83;1.30;;;22.30;36.40;;;;;;2529080;53;20937;-72
2023/06/04 21:35:21;;;;;;;3.12;1.58;;;22.20;36.50;;;;;;2294071;53;20997;-70
2023/06/04 21:37:47;;;;;;;3.17;1.55;;;22.20;36.60;;;;;;2298116;53;21057;-71
2023/06/04 21:40:14;;;;;;;2.97;1.20;;;22.10;36.70;;;;;;2534259;53;21341;-70
2023/06/04 21:42:40;;;;;;;2.90;1.40;;;22.00;36.90;;;;;;2516073;53;20965;-72
2023/06/04 21:45:07;;;;;;;3.12;1.35;;;21.90;36.90;;;;;;2522523;54;20953;-71
2023/06/04 21:47:33;;;;;;;2.83;1.20;;;21.90;37.00;;;;;;2521562;54;20949;-71
2023/06/04 21:50:02;;;;;;;3.17;1.23;;;21.80;37.10;;;;;;2521882;54;20969;-71
2023/06/04 21:52:28;;;;;;;3.00;1.40;;;21.80;37.20;;;;;;2521809;54;21542;-71
2023/06/04 21:54:55;;;;;;;3.30;1.60;;;21.70;37.30;;;;;;2286985;54;20945;-71
2023/06/04 21:57:23;;;;;;;2.85;1.35;;;21.70;37.60;;;;;;2287390;54;21021;-70
2023/06/04 21:59:50;;;;;;;3.08;1.50;;;21.60;37.60;;;;;;2529049;54;20977;-71
2023/06/04 22:02:17;;;;;;;2.53;1.35;;;21.50;37.60;;;;;;2537430;53;20918;-71
2023/06/04 22:04:44;;;;;;;3.00;1.48;;;21.50;37.60;;;;;;2540806;53;20945;-71
2023/06/04 22:07:11;;;;;;;2.92;1.35;;;21.40;37.80;;;;;;2522415;54;20938;-71
2023/06/04 22:09:38;;;;;;;2.70;1.62;;;21.40;37.90;;;;;;2522525;54;21002;-70
2023/06/04 22:12:06;;;;;;;3.28;1.55;;;21.30;37.90;;;;;;2521971;54;21000;-69
2023/06/04 22:14:35;;;;;;;3.20;1.70;;;21.20;38.10;;;;;;2530905;54;20958;-72
2023/06/04 22:17:01;;;;;;;3.50;1.70;;;21.10;38.10;;;;;;2309766;54;21082;-72
2023/06/04 22:19:27;;;;;;;2.72;1.30;;;21.10;38.30;;;;;;2309676;54;21039;-69
2023/06/04 22:21:55;;;;;;;3.12;1.70;;;21.00;38.40;;;;;;2306870;53;21003;-71
2023/06/04 22:24:21;;;;;;;3.80;1.80;;;21.00;38.50;;;;;;2309835;54;21839;-72
2023/06/04 22:26:48;;;;;;;3.20;1.60;;;20.90;38.60;;;;;;2548487;53;20944;-71
2023/06/04 22:29:16;;;;;;;2.60;1.30;;;20.90;39.30;;;;;;2549075;54;21845;-70
2023/06/04 22:31:44;;;;;;;3.65;1.55;;;20.80;38.60;;;;;;2548419;54;20943;-71
2023/06/04 22:34:10;;;;;;;3.85;1.67;;;20.80;38.80;;;;;;2549458;54;21019;-70
2023/06/04 22:36:36;;;;;;;3.58;1.48;;;20.70;38.80;;;;;;2548485;54;21014;-71
2023/06/04 22:39:06;;;;;;;3.08;1.45;;;20.70;38.90;;;;;;2548823;54;20939;-72
2023/06/04 22:41:32;;;;;;;4.05;1.40;;;20.60;39.00;;;;;;2548669;54;21023;-71
2023/06/04 22:43:59;;;;;;;2.62;1.23;;;20.60;39.10;;;;;;2548402;53;21303;-69
2023/06/04 22:46:26;;;;;;;2.60;1.30;;;20.50;39.10;;;;;;2547443;53;20992;-71
2023/06/04 22:48:52;;;;;;;3.17;1.35;;;20.50;39.20;;;;;;2548539;53;20988;-70
2023/06/04 22:51:22;;;;;;;2.67;1.20;;;20.40;39.20;;;;;;2313295;54;21389;-70
2023/06/04 22:53:49;;;;;;;3.22;1.25;;;20.40;39.20;;;;;;2546067;54;21019;-70
2023/06/04 22:56:15;;;;;;;2.85;1.10;;;20.30;39.10;;;;;;2549413;53;20907;-71
2023/06/04 22:58:42;;;;;;;2.83;1.52;;;20.20;39.10;;;;;;2548357;54;21007;-71
2023/06/04 23:01:09;;;;;;;2.70;1.20;;;20.20;39.30;;;;;;2288429;54;20985;-71
2023/06/04 23:03:35;;;;;;;2.75;1.40;;;20.10;39.40;;;;;;2287196;54;20942;-71
2023/06/04 23:06:01;;;;;;;2.83;1.10;;;20.10;39.30;;;;;;2521073;54;20999;-73
2023/06/04 23:08:28;;;;;;;2.87;1.35;;;20.00;39.30;;;;;;2306829;53;21100;-71
2023/06/04 23:10:56;;;;;;;3.28;1.50;;;19.90;39.30;;;;;;2523909;53;20945;-71
2023/06/04 23:13:26;;;;;;;2.57;1.17;;;19.90;39.40;;;;;;2292761;54;21016;-71
2023/06/04 23:15:52;;;;;;;2.40;1.20;;;19.80;39.40;;;;;;2305790;53;20954;-70
2023/06/04 23:18:23;;;;;;;2.85;1.35;;;19.80;39.50;;;;;;2286659;53;21101;-71
2023/06/04 23:20:49;;;;;;;2.62;1.17;;;19.70;40.00;;;;;;2287185;54;20990;-72
2023/06/04 23:23:16;;;;;;;2.58;1.20;;;19.60;39.80;;;;;;2288360;54;20973;-72
2023/06/04 23:25:46;;;;;;;3.65;1.70;;;19.60;39.90;;;;;;2521696;54;21045;-70
2023/06/04 23:28:13;;;;;;;3.62;1.90;;;19.50;40.00;;;;;;2314544;54;20983;-70
2023/06/04 23:30:40;;;;;;;4.30;1.40;;;19.50;40.00;;;;;;2552936;54;21012;-70
2023/06/04 23:33:06;;;;;;;2.72;1.37;;;19.40;40.00;;;;;;2553280;54;21033;-73
2023/06/04 23:35:33;;;;;;;2.40;1.20;;;19.40;40.10;;;;;;2313783;54;20951;-71
2023/06/04 23:37:59;;;;;;;2.92;1.40;;;19.30;40.10;;;;;;2313846;54;20987;-70
2023/06/04 23:40:26;;;;;;;3.15;1.67;;;19.30;40.30;;;;;;2553973;54;21041;-71
2023/06/04 23:42:53;;;;;;;3.62;1.50;;;19.20;40.50;;;;;;2313734;54;20962;-73
2023/06/04 23:45:19;;;;;;;2.53;1.33;;;19.20;40.50;;;;;;2313451;54;21380;-70
2023/06/04 23:47:46;;;;;;;2.75;1.35;;;19.20;40.50;;;;;;2313740;54;21345;-70
2023/06/04 23:50:14;;;;;;;2.83;1.50;;;19.10;40.50;;;;;;2290400;55;21444;-70
2023/06/04 23:52:41;;;;;;;3.28;1.40;;;19.10;40.50;;;;;;2552844;54;20953;-72
2023/06/04 23:55:08;;;;;;;4.30;1.50;;;19.00;40.40;;;;;;2313544;54;21023;-72
2023/06/04 23:57:35;;;;;;;2.67;1.37;;;19.00;40.50;;;;;;2552353;54;21018;-70
